sensor_id;sensor_type;location;lat;lon;timestamp;P1;durP1;ratioP1;P2;durP2;ratioP2
39728;SDS011;25402;42.004;23.088;2023-11-21T00:00:34;36.20;;;12.02;;
39728;SDS011;25402;42.004;23.088;2023-11-21T00:03:01;34.40;;;12.57;;
39728;SDS011;25402;42.004;23.088;2023-11-21T00:05:29;30.50;;;11.70;;
39728;SDS011;25402;42.004;23.088;2023-11-21T00:07:57;28.83;;;11.77;;
39728;SDS011;25402;42.004;23.088;2023-11-21T00:10:24;25.83;;;11.00;;
39728;SDS011;25402;42.004;23.088;2023-11-21T00:12:51;26.30;;;11.45;;
39728;SDS011;25402;42.004;23.088;2023-11-21T00:15:20;32.05;;;11.38;;
39728;SDS011;25402;42.004;23.088;2023-11-21T00:17:47;32.25;;;11.68;;
39728;SDS011;25402;42.004;23.088;2023-11-21T00:20:14;29.23;;;11.45;;
39728;SDS011;25402;42.004;23.088;2023-11-21T00:22:41;22.98;;;10.20;;
39728;SDS011;25402;42.004;23.088;2023-11-21T00:25:10;26.88;;;10.57;;
39728;SDS011;25402;42.004;23.088;2023-11-21T00:27:40;20.92;;;9.48;;
39728;SDS011;25402;42.004;23.088;2023-11-21T00:30:07;23.85;;;8.93;;
39728;SDS011;25402;42.004;23.088;2023-11-21T00:32:35;36.22;;;10.32;;
39728;SDS011;25402;42.004;23.088;2023-11-21T00:35:03;25.30;;;9.70;;
39728;SDS011;25402;42.004;23.088;2023-11-21T00:37:31;25.25;;;9.20;;
39728;SDS011;25402;42.004;23.088;2023-11-21T00:39:58;21.70;;;9.13;;
39728;SDS011;25402;42.004;23.088;2023-11-21T00:42:26;26.63;;;9.60;;
39728;SDS011;25402;42.004;23.088;2023-11-21T00:44:53;32.13;;;10.95;;
39728;SDS011;25402;42.004;23.088;2023-11-21T00:47:20;30.63;;;11.48;;
39728;SDS011;25402;42.004;23.088;2023-11-21T00:49:47;23.05;;;9.90;;
39728;SDS011;25402;42.004;23.088;2023-11-21T00:52:14;26.60;;;11.93;;
39728;SDS011;25402;42.004;23.088;2023-11-21T00:54:41;28.60;;;10.70;;
39728;SDS011;25402;42.004;23.088;2023-11-21T00:57:10;30.25;;;11.13;;
39728;SDS011;25402;42.004;23.088;2023-11-21T00:59:38;26.58;;;11.98;;
39728;SDS011;25402;42.004;23.088;2023-11-21T01:02:05;36.38;;;11.18;;
39728;SDS011;25402;42.004;23.088;2023-11-21T01:04:35;30.50;;;11.25;;
39728;SDS011;25402;42.004;23.088;2023-11-21T01:07:02;27.63;;;12.45;;
39728;SDS011;25402;42.004;23.088;2023-11-21T01:09:30;37.35;;;12.63;;
39728;SDS011;25402;42.004;23.088;2023-11-21T01:11:57;43.00;;;12.23;;
39728;SDS011;25402;42.004;23.088;2023-11-21T01:14:25;29.95;;;11.05;;
39728;SDS011;25402;42.004;23.088;2023-11-21T01:16:53;28.13;;;10.27;;
39728;SDS011;25402;42.004;23.088;2023-11-21T01:19:20;27.73;;;10.52;;
39728;SDS011;25402;42.004;23.088;2023-11-21T01:21:47;22.88;;;10.85;;
39728;SDS011;25402;42.004;23.088;2023-11-21T01:24:14;23.75;;;10.27;;
39728;SDS011;25402;42.004;23.088;2023-11-21T01:26:41;28.27;;;10.35;;
39728;SDS011;25402;42.004;23.088;2023-11-21T01:29:08;24.15;;;10.68;;
39728;SDS011;25402;42.004;23.088;2023-11-21T01:31:35;31.80;;;10.73;;
39728;SDS011;25402;42.004;23.088;2023-11-21T01:34:04;27.48;;;10.15;;
39728;SDS011;25402;42.004;23.088;2023-11-21T01:36:31;24.98;;;10.57;;
39728;SDS011;25402;42.004;23.088;2023-11-21T01:38:58;24.30;;;10.52;;
39728;SDS011;25402;42.004;23.088;2023-11-21T01:41:26;24.90;;;9.75;;
39728;SDS011;25402;42.004;23.088;2023-11-21T01:43:53;24.33;;;10.38;;
39728;SDS011;25402;42.004;23.088;2023-11-21T01:46:20;31.35;;;10.52;;
39728;SDS011;25402;42.004;23.088;2023-11-21T01:48:49;23.73;;;10.70;;
39728;SDS011;25402;42.004;23.088;2023-11-21T01:51:17;21.63;;;10.68;;
39728;SDS011;25402;42.004;23.088;2023-11-21T01:53:45;23.13;;;11.07;;
39728;SDS011;25402;42.004;23.088;2023-11-21T01:56:12;25.73;;;10.73;;
39728;SDS011;25402;42.004;23.088;2023-11-21T01:58:40;24.30;;;10.27;;
39728;SDS011;25402;42.004;23.088;2023-11-21T02:01:08;27.77;;;10.95;;
39728;SDS011;25402;42.004;23.088;2023-11-21T02:03:36;34.42;;;10.80;;
39728;SDS011;25402;42.004;23.088;2023-11-21T02:06:03;27.67;;;10.55;;
39728;SDS011;25402;42.004;23.088;2023-11-21T02:08:33;30.77;;;11.13;;
39728;SDS011;25402;42.004;23.088;2023-11-21T02:11:02;26.35;;;11.00;;
39728;SDS011;25402;42.004;23.088;2023-11-21T02:13:30;22.13;;;10.13;;
39728;SDS011;25402;42.004;23.088;2023-11-21T02:15:58;27.85;;;10.88;;
39728;SDS011;25402;42.004;23.088;2023-11-21T02:18:25;25.08;;;11.15;;
39728;SDS011;25402;42.004;23.088;2023-11-21T02:20:54;29.77;;;11.68;;
39728;SDS011;25402;42.004;23.088;2023-11-21T02:23:23;22.98;;;10.18;;
39728;SDS011;25402;42.004;23.088;2023-11-21T02:25:54;31.35;;;11.02;;
39728;SDS011;25402;42.004;23.088;2023-11-21T02:28:21;27.48;;;11.68;;
39728;SDS011;25402;42.004;23.088;2023-11-21T02:30:51;35.80;;;11.75;;
39728;SDS011;25402;42.004;23.088;2023-11-21T02:33:20;22.38;;;10.77;;
39728;SDS011;25402;42.004;23.088;2023-11-21T02:35:48;28.58;;;10.00;;
39728;SDS011;25402;42.004;23.088;2023-11-21T02:38:16;24.85;;;10.82;;
39728;SDS011;25402;42.004;23.088;2023-11-21T02:40:45;22.30;;;10.35;;
39728;SDS011;25402;42.004;23.088;2023-11-21T02:43:11;23.08;;;10.65;;
39728;SDS011;25402;42.004;23.088;2023-11-21T02:45:38;22.52;;;9.65;;
39728;SDS011;25402;42.004;23.088;2023-11-21T02:48:07;26.35;;;10.07;;
39728;SDS011;25402;42.004;23.088;2023-11-21T02:50:34;27.38;;;10.30;;
39728;SDS011;25402;42.004;23.088;2023-11-21T02:53:02;18.42;;;9.30;;
39728;SDS011;25402;42.004;23.088;2023-11-21T02:55:31;24.90;;;10.27;;
39728;SDS011;25402;42.004;23.088;2023-11-21T02:58:01;23.20;;;9.63;;
39728;SDS011;25402;42.004;23.088;2023-11-21T03:00:28;22.55;;;9.48;;
39728;SDS011;25402;42.004;23.088;2023-11-21T03:02:55;22.77;;;10.18;;
39728;SDS011;25402;42.004;23.088;2023-11-21T03:05:23;24.52;;;10.18;;
39728;SDS011;25402;42.004;23.088;2023-11-21T03:07:50;25.17;;;9.93;;
39728;SDS011;25402;42.004;23.088;2023-11-21T03:10:17;25.02;;;9.63;;
39728;SDS011;25402;42.004;23.088;2023-11-21T03:12:44;22.25;;;10.68;;
39728;SDS011;25402;42.004;23.088;2023-11-21T03:15:13;26.13;;;9.88;;
39728;SDS011;25402;42.004;23.088;2023-11-21T03:17:40;23.10;;;9.75;;
39728;SDS011;25402;42.004;23.088;2023-11-21T03:20:07;25.23;;;9.15;;
39728;SDS011;25402;42.004;23.088;2023-11-21T03:22:36;24.33;;;9.55;;
39728;SDS011;25402;42.004;23.088;2023-11-21T03:25:04;19.10;;;9.63;;
39728;SDS011;25402;42.004;23.088;2023-11-21T03:27:31;21.48;;;9.32;;
39728;SDS011;25402;42.004;23.088;2023-11-21T03:29:58;24.95;;;9.93;;
39728;SDS011;25402;42.004;23.088;2023-11-21T03:32:26;21.15;;;10.25;;
39728;SDS011;25402;42.004;23.088;2023-11-21T03:34:53;37.92;;;10.18;;
39728;SDS011;25402;42.004;23.088;2023-11-21T03:37:22;20.70;;;10.35;;
39728;SDS011;25402;42.004;23.088;2023-11-21T03:39:49;22.30;;;10.75;;
39728;SDS011;25402;42.004;23.088;2023-11-21T03:42:17;20.98;;;9.30;;
39728;SDS011;25402;42.004;23.088;2023-11-21T03:44:44;27.85;;;10.20;;
39728;SDS011;25402;42.004;23.088;2023-11-21T03:47:11;22.73;;;9.70;;
39728;SDS011;25402;42.004;23.088;2023-11-21T03:49:40;25.23;;;9.70;;
39728;SDS011;25402;42.004;23.088;2023-11-21T03:52:07;25.98;;;9.35;;
39728;SDS011;25402;42.004;23.088;2023-11-21T03:54:34;41.47;;;13.98;;
39728;SDS011;25402;42.004;23.088;2023-11-21T03:57:01;26.65;;;11.00;;
39728;SDS011;25402;42.004;23.088;2023-11-21T03:59:28;53.92;;;12.30;;
39728;SDS011;25402;42.004;23.088;2023-11-21T04:01:55;35.65;;;11.70;;
39728;SDS011;25402;42.004;23.088;2023-11-21T04:04:23;25.08;;;11.00;;
39728;SDS011;25402;42.004;23.088;2023-11-21T04:06:51;22.98;;;10.30;;
39728;SDS011;25402;42.004;23.088;2023-11-21T04:09:18;36.85;;;11.18;;
39728;SDS011;25402;42.004;23.088;2023-11-21T04:11:45;51.20;;;11.63;;
39728;SDS011;25402;42.004;23.088;2023-11-21T04:14:13;48.10;;;10.70;;
39728;SDS011;25402;42.004;23.088;2023-11-21T04:16:40;32.92;;;12.07;;
39728;SDS011;25402;42.004;23.088;2023-11-21T04:19:07;39.40;;;11.90;;
39728;SDS011;25402;42.004;23.088;2023-11-21T04:21:35;37.70;;;11.80;;
39728;SDS011;25402;42.004;23.088;2023-11-21T04:24:05;31.98;;;11.50;;
39728;SDS011;25402;42.004;23.088;2023-11-21T04:26:32;38.38;;;11.77;;
39728;SDS011;25402;42.004;23.088;2023-11-21T04:29:00;33.05;;;12.77;;
39728;SDS011;25402;42.004;23.088;2023-11-21T04:31:27;45.75;;;16.52;;
39728;SDS011;25402;42.004;23.088;2023-11-21T04:33:54;53.10;;;17.67;;
39728;SDS011;25402;42.004;23.088;2023-11-21T04:36:21;39.38;;;14.30;;
39728;SDS011;25402;42.004;23.088;2023-11-21T04:38:48;35.25;;;13.38;;
39728;SDS011;25402;42.004;23.088;2023-11-21T04:41:16;37.97;;;13.32;;
39728;SDS011;25402;42.004;23.088;2023-11-21T04:43:43;33.60;;;14.38;;
39728;SDS011;25402;42.004;23.088;2023-11-21T04:46:10;30.58;;;12.45;;
39728;SDS011;25402;42.004;23.088;2023-11-21T04:48:37;34.22;;;12.05;;
39728;SDS011;25402;42.004;23.088;2023-11-21T04:51:05;36.25;;;12.63;;
39728;SDS011;25402;42.004;23.088;2023-11-21T04:53:32;33.25;;;12.45;;
39728;SDS011;25402;42.004;23.088;2023-11-21T04:55:59;31.30;;;12.23;;
39728;SDS011;25402;42.004;23.088;2023-11-21T04:58:28;31.35;;;12.57;;
39728;SDS011;25402;42.004;23.088;2023-11-21T05:00:55;27.67;;;11.35;;
39728;SDS011;25402;42.004;23.088;2023-11-21T05:03:22;34.13;;;11.68;;
39728;SDS011;25402;42.004;23.088;2023-11-21T05:05:50;29.35;;;11.40;;
39728;SDS011;25402;42.004;23.088;2023-11-21T05:08:17;42.33;;;16.77;;
39728;SDS011;25402;42.004;23.088;2023-11-21T05:10:45;39.72;;;15.20;;
39728;SDS011;25402;42.004;23.088;2023-11-21T05:13:13;28.73;;;12.63;;
39728;SDS011;25402;42.004;23.088;2023-11-21T05:15:43;26.40;;;11.10;;
39728;SDS011;25402;42.004;23.088;2023-11-21T05:18:10;28.85;;;12.77;;
39728;SDS011;25402;42.004;23.088;2023-11-21T05:20:39;36.97;;;12.60;;
39728;SDS011;25402;42.004;23.088;2023-11-21T05:23:06;31.42;;;11.20;;
39728;SDS011;25402;42.004;23.088;2023-11-21T05:25:33;28.85;;;10.68;;
39728;SDS011;25402;42.004;23.088;2023-11-21T05:28:00;26.40;;;12.10;;
39728;SDS011;25402;42.004;23.088;2023-11-21T05:30:28;46.42;;;16.25;;
39728;SDS011;25402;42.004;23.088;2023-11-21T05:32:56;40.00;;;13.88;;
39728;SDS011;25402;42.004;23.088;2023-11-21T05:35:23;34.90;;;13.63;;
39728;SDS011;25402;42.004;23.088;2023-11-21T05:37:51;54.88;;;23.42;;
39728;SDS011;25402;42.004;23.088;2023-11-21T05:40:19;39.05;;;15.82;;
39728;SDS011;25402;42.004;23.088;2023-11-21T05:42:47;67.88;;;18.23;;
39728;SDS011;25402;42.004;23.088;2023-11-21T05:45:14;78.55;;;24.88;;
39728;SDS011;25402;42.004;23.088;2023-11-21T05:47:42;58.35;;;24.40;;
39728;SDS011;25402;42.004;23.088;2023-11-21T05:50:13;84.68;;;35.65;;
39728;SDS011;25402;42.004;23.088;2023-11-21T05:52:41;77.35;;;23.40;;
39728;SDS011;25402;42.004;23.088;2023-11-21T05:55:09;76.93;;;24.60;;
39728;SDS011;25402;42.004;23.088;2023-11-21T05:57:40;38.67;;;14.10;;
39728;SDS011;25402;42.004;23.088;2023-11-21T06:00:10;43.13;;;16.35;;
39728;SDS011;25402;42.004;23.088;2023-11-21T06:02:45;47.22;;;19.58;;
39728;SDS011;25402;42.004;23.088;2023-11-21T06:05:14;47.92;;;15.70;;
39728;SDS011;25402;42.004;23.088;2023-11-21T06:07:42;54.85;;;17.02;;
39728;SDS011;25402;42.004;23.088;2023-11-21T06:10:10;44.63;;;16.50;;
39728;SDS011;25402;42.004;23.088;2023-11-21T06:12:39;62.88;;;24.13;;
39728;SDS011;25402;42.004;23.088;2023-11-21T06:15:08;45.45;;;14.65;;
39728;SDS011;25402;42.004;23.088;2023-11-21T06:17:38;48.50;;;14.95;;
39728;SDS011;25402;42.004;23.088;2023-11-21T06:20:07;46.13;;;13.30;;
39728;SDS011;25402;42.004;23.088;2023-11-21T06:22:41;34.72;;;12.90;;
39728;SDS011;25402;42.004;23.088;2023-11-21T06:25:10;31.52;;;13.48;;
39728;SDS011;25402;42.004;23.088;2023-11-21T06:27:39;38.35;;;13.02;;
39728;SDS011;25402;42.004;23.088;2023-11-21T06:30:08;37.22;;;14.48;;
39728;SDS011;25402;42.004;23.088;2023-11-21T06:32:37;63.60;;;16.10;;
39728;SDS011;25402;42.004;23.088;2023-11-21T06:35:07;39.65;;;16.17;;
39728;SDS011;25402;42.004;23.088;2023-11-21T06:37:38;38.83;;;15.75;;
39728;SDS011;25402;42.004;23.088;2023-11-21T06:40:17;43.55;;;16.50;;
39728;SDS011;25402;42.004;23.088;2023-11-21T06:42:47;41.88;;;16.77;;
39728;SDS011;25402;42.004;23.088;2023-11-21T06:45:29;51.03;;;15.93;;
39728;SDS011;25402;42.004;23.088;2023-11-21T06:47:57;47.72;;;17.95;;
39728;SDS011;25402;42.004;23.088;2023-11-21T06:50:24;56.05;;;19.90;;
39728;SDS011;25402;42.004;23.088;2023-11-21T06:52:52;62.10;;;20.60;;
39728;SDS011;25402;42.004;23.088;2023-11-21T06:55:20;66.53;;;23.48;;
39728;SDS011;25402;42.004;23.088;2023-11-21T06:57:48;60.70;;;23.88;;
39728;SDS011;25402;42.004;23.088;2023-11-21T07:00:17;49.92;;;21.02;;
39728;SDS011;25402;42.004;23.088;2023-11-21T07:02:44;53.42;;;21.33;;
39728;SDS011;25402;42.004;23.088;2023-11-21T07:05:11;49.80;;;19.70;;
39728;SDS011;25402;42.004;23.088;2023-11-21T07:07:39;36.47;;;14.15;;
39728;SDS011;25402;42.004;23.088;2023-11-21T07:10:08;35.90;;;14.25;;
39728;SDS011;25402;42.004;23.088;2023-11-21T07:12:36;38.40;;;15.02;;
39728;SDS011;25402;42.004;23.088;2023-11-21T07:15:06;45.67;;;16.10;;
39728;SDS011;25402;42.004;23.088;2023-11-21T07:17:35;42.97;;;15.98;;
39728;SDS011;25402;42.004;23.088;2023-11-21T07:20:03;51.38;;;16.98;;
39728;SDS011;25402;42.004;23.088;2023-11-21T07:22:31;48.85;;;15.77;;
39728;SDS011;25402;42.004;23.088;2023-11-21T07:24:59;43.10;;;15.57;;
39728;SDS011;25402;42.004;23.088;2023-11-21T07:27:27;43.20;;;16.73;;
39728;SDS011;25402;42.004;23.088;2023-11-21T07:29:54;47.67;;;16.50;;
39728;SDS011;25402;42.004;23.088;2023-11-21T07:32:21;37.85;;;15.82;;
39728;SDS011;25402;42.004;23.088;2023-11-21T07:34:48;47.67;;;16.73;;
39728;SDS011;25402;42.004;23.088;2023-11-21T07:37:15;40.25;;;16.70;;
39728;SDS011;25402;42.004;23.088;2023-11-21T07:39:42;42.15;;;16.45;;
39728;SDS011;25402;42.004;23.088;2023-11-21T07:42:09;37.67;;;16.52;;
39728;SDS011;25402;42.004;23.088;2023-11-21T07:44:38;32.65;;;16.33;;
39728;SDS011;25402;42.004;23.088;2023-11-21T07:47:06;34.90;;;15.63;;
39728;SDS011;25402;42.004;23.088;2023-11-21T07:49:33;41.90;;;16.35;;
39728;SDS011;25402;42.004;23.088;2023-11-21T07:52:00;41.15;;;15.77;;
39728;SDS011;25402;42.004;23.088;2023-11-21T07:54:30;40.47;;;15.80;;
39728;SDS011;25402;42.004;23.088;2023-11-21T07:57:01;44.60;;;16.45;;
39728;SDS011;25402;42.004;23.088;2023-11-21T07:59:30;33.30;;;15.73;;
39728;SDS011;25402;42.004;23.088;2023-11-21T08:01:58;35.22;;;17.50;;
39728;SDS011;25402;42.004;23.088;2023-11-21T08:04:25;40.15;;;15.60;;
39728;SDS011;25402;42.004;23.088;2023-11-21T08:06:52;31.33;;;12.48;;
39728;SDS011;25402;42.004;23.088;2023-11-21T08:09:19;34.13;;;14.65;;
39728;SDS011;25402;42.004;23.088;2023-11-21T08:11:48;70.68;;;33.47;;
39728;SDS011;25402;42.004;23.088;2023-11-21T08:14:17;61.30;;;27.50;;
39728;SDS011;25402;42.004;23.088;2023-11-21T08:16:50;71.10;;;25.27;;
39728;SDS011;25402;42.004;23.088;2023-11-21T08:19:24;46.88;;;20.50;;
39728;SDS011;25402;42.004;23.088;2023-11-21T08:21:51;71.38;;;18.73;;
39728;SDS011;25402;42.004;23.088;2023-11-21T08:24:20;50.47;;;18.75;;
39728;SDS011;25402;42.004;23.088;2023-11-21T08:26:47;48.17;;;18.00;;
39728;SDS011;25402;42.004;23.088;2023-11-21T08:29:15;39.13;;;18.63;;
39728;SDS011;25402;42.004;23.088;2023-11-21T08:31:43;38.35;;;17.00;;
39728;SDS011;25402;42.004;23.088;2023-11-21T08:34:11;35.75;;;14.32;;
39728;SDS011;25402;42.004;23.088;2023-11-21T08:36:46;28.60;;;12.13;;
39728;SDS011;25402;42.004;23.088;2023-11-21T08:39:13;50.40;;;12.48;;
39728;SDS011;25402;42.004;23.088;2023-11-21T08:41:41;34.28;;;10.73;;
39728;SDS011;25402;42.004;23.088;2023-11-21T08:44:09;25.58;;;11.02;;
39728;SDS011;25402;42.004;23.088;2023-11-21T08:46:36;34.10;;;10.85;;
39728;SDS011;25402;42.004;23.088;2023-11-21T08:49:06;27.65;;;10.32;;
39728;SDS011;25402;42.004;23.088;2023-11-21T08:51:33;33.08;;;11.05;;
39728;SDS011;25402;42.004;23.088;2023-11-21T08:54:04;27.95;;;11.68;;
39728;SDS011;25402;42.004;23.088;2023-11-21T08:56:33;24.52;;;11.50;;
39728;SDS011;25402;42.004;23.088;2023-11-21T08:59:00;23.40;;;11.63;;
39728;SDS011;25402;42.004;23.088;2023-11-21T09:01:27;26.58;;;11.95;;
39728;SDS011;25402;42.004;23.088;2023-11-21T09:04:00;31.05;;;11.18;;
39728;SDS011;25402;42.004;23.088;2023-11-21T09:06:27;25.33;;;11.07;;
39728;SDS011;25402;42.004;23.088;2023-11-21T09:08:56;30.10;;;12.00;;
39728;SDS011;25402;42.004;23.088;2023-11-21T09:11:24;27.77;;;11.68;;
39728;SDS011;25402;42.004;23.088;2023-11-21T09:13:58;28.63;;;12.13;;
39728;SDS011;25402;42.004;23.088;2023-11-21T09:16:25;33.38;;;13.13;;
39728;SDS011;25402;42.004;23.088;2023-11-21T09:18:53;38.95;;;14.00;;
39728;SDS011;25402;42.004;23.088;2023-11-21T09:21:20;31.48;;;13.73;;
39728;SDS011;25402;42.004;23.088;2023-11-21T09:23:48;30.95;;;13.48;;
39728;SDS011;25402;42.004;23.088;2023-11-21T09:26:15;27.15;;;12.63;;
39728;SDS011;25402;42.004;23.088;2023-11-21T09:28:44;30.35;;;13.90;;
39728;SDS011;25402;42.004;23.088;2023-11-21T09:31:13;28.40;;;13.30;;
39728;SDS011;25402;42.004;23.088;2023-11-21T09:33:40;36.50;;;14.10;;
39728;SDS011;25402;42.004;23.088;2023-11-21T09:36:10;26.45;;;12.65;;
39728;SDS011;25402;42.004;23.088;2023-11-21T09:38:38;31.95;;;13.30;;
39728;SDS011;25402;42.004;23.088;2023-11-21T09:41:10;25.70;;;13.02;;
39728;SDS011;25402;42.004;23.088;2023-11-21T09:46:27;36.08;;;15.68;;
39728;SDS011;25402;42.004;23.088;2023-11-21T09:48:57;33.78;;;14.23;;
39728;SDS011;25402;42.004;23.088;2023-11-21T09:51:30;38.85;;;15.27;;
39728;SDS011;25402;42.004;23.088;2023-11-21T09:54:01;27.35;;;13.15;;
39728;SDS011;25402;42.004;23.088;2023-11-21T09:56:34;28.83;;;12.00;;
39728;SDS011;25402;42.004;23.088;2023-11-21T09:59:01;23.63;;;12.25;;
39728;SDS011;25402;42.004;23.088;2023-11-21T10:01:34;40.10;;;10.95;;
39728;SDS011;25402;42.004;23.088;2023-11-21T10:04:03;27.80;;;11.20;;
39728;SDS011;25402;42.004;23.088;2023-11-21T10:06:37;23.10;;;10.80;;
39728;SDS011;25402;42.004;23.088;2023-11-21T10:09:07;28.52;;;11.23;;
39728;SDS011;25402;42.004;23.088;2023-11-21T10:11:37;23.92;;;11.75;;
39728;SDS011;25402;42.004;23.088;2023-11-21T10:14:08;30.10;;;14.70;;
39728;SDS011;25402;42.004;23.088;2023-11-21T10:16:40;35.88;;;16.17;;
39728;SDS011;25402;42.004;23.088;2023-11-21T10:19:09;61.30;;;27.33;;
39728;SDS011;25402;42.004;23.088;2023-11-21T10:21:40;46.47;;;22.15;;
39728;SDS011;25402;42.004;23.088;2023-11-21T10:24:08;45.67;;;22.77;;
39728;SDS011;25402;42.004;23.088;2023-11-21T10:26:35;36.65;;;17.27;;
39728;SDS011;25402;42.004;23.088;2023-11-21T10:29:03;38.80;;;16.80;;
39728;SDS011;25402;42.004;23.088;2023-11-21T10:31:31;41.13;;;17.88;;
39728;SDS011;25402;42.004;23.088;2023-11-21T10:34:15;51.22;;;21.70;;
39728;SDS011;25402;42.004;23.088;2023-11-21T10:36:44;86.13;;;24.60;;
39728;SDS011;25402;42.004;23.088;2023-11-21T10:39:13;134.35;;;36.13;;
39728;SDS011;25402;42.004;23.088;2023-11-21T10:41:44;61.28;;;22.35;;
39728;SDS011;25402;42.004;23.088;2023-11-21T10:44:13;68.05;;;23.10;;
39728;SDS011;25402;42.004;23.088;2023-11-21T10:46:46;48.33;;;17.90;;
39728;SDS011;25402;42.004;23.088;2023-11-21T10:49:17;42.60;;;16.85;;
39728;SDS011;25402;42.004;23.088;2023-11-21T10:51:45;43.58;;;16.40;;
39728;SDS011;25402;42.004;23.088;2023-11-21T10:54:17;45.25;;;16.23;;
39728;SDS011;25402;42.004;23.088;2023-11-21T10:56:50;31.67;;;13.27;;
39728;SDS011;25402;42.004;23.088;2023-11-21T10:59:19;42.22;;;14.82;;
39728;SDS011;25402;42.004;23.088;2023-11-21T11:01:52;34.38;;;15.70;;
39728;SDS011;25402;42.004;23.088;2023-11-21T11:04:22;31.98;;;14.20;;
39728;SDS011;25402;42.004;23.088;2023-11-21T11:06:53;29.40;;;12.30;;
39728;SDS011;25402;42.004;23.088;2023-11-21T11:09:21;20.67;;;9.60;;
39728;SDS011;25402;42.004;23.088;2023-11-21T11:11:48;22.15;;;9.90;;
39728;SDS011;25402;42.004;23.088;2023-11-21T11:14:15;18.67;;;9.20;;
39728;SDS011;25402;42.004;23.088;2023-11-21T11:16:44;20.83;;;10.00;;
39728;SDS011;25402;42.004;23.088;2023-11-21T11:19:11;19.52;;;9.93;;
39728;SDS011;25402;42.004;23.088;2023-11-21T11:21:43;21.83;;;10.35;;
39728;SDS011;25402;42.004;23.088;2023-11-21T11:24:37;22.10;;;9.80;;
39728;SDS011;25402;42.004;23.088;2023-11-21T11:27:18;24.38;;;9.93;;
39728;SDS011;25402;42.004;23.088;2023-11-21T11:29:55;22.80;;;11.73;;
39728;SDS011;25402;42.004;23.088;2023-11-21T11:32:37;43.38;;;17.45;;
39728;SDS011;25402;42.004;23.088;2023-11-21T11:35:14;35.03;;;14.63;;
39728;SDS011;25402;42.004;23.088;2023-11-21T11:37:51;45.33;;;17.15;;
39728;SDS011;25402;42.004;23.088;2023-11-21T11:40:21;49.67;;;17.95;;
39728;SDS011;25402;42.004;23.088;2023-11-21T11:42:56;44.17;;;18.38;;
39728;SDS011;25402;42.004;23.088;2023-11-21T11:45:24;44.67;;;17.85;;
39728;SDS011;25402;42.004;23.088;2023-11-21T11:47:59;51.90;;;17.88;;
39728;SDS011;25402;42.004;23.088;2023-11-21T11:50:28;49.00;;;16.83;;
39728;SDS011;25402;42.004;23.088;2023-11-21T11:53:11;49.95;;;17.25;;
39728;SDS011;25402;42.004;23.088;2023-11-21T11:55:40;42.03;;;16.67;;
39728;SDS011;25402;42.004;23.088;2023-11-21T11:58:07;58.67;;;18.35;;
39728;SDS011;25402;42.004;23.088;2023-11-21T12:00:35;47.88;;;18.77;;
39728;SDS011;25402;42.004;23.088;2023-11-21T12:03:05;40.85;;;18.33;;
39728;SDS011;25402;42.004;23.088;2023-11-21T12:05:34;59.13;;;19.05;;
39728;SDS011;25402;42.004;23.088;2023-11-21T12:08:06;48.25;;;18.83;;
39728;SDS011;25402;42.004;23.088;2023-11-21T12:10:35;65.20;;;20.90;;
39728;SDS011;25402;42.004;23.088;2023-11-21T12:13:05;50.85;;;18.88;;
39728;SDS011;25402;42.004;23.088;2023-11-21T12:15:33;54.35;;;20.48;;
39728;SDS011;25402;42.004;23.088;2023-11-21T12:18:01;58.13;;;21.45;;
39728;SDS011;25402;42.004;23.088;2023-11-21T12:20:30;52.85;;;23.08;;
39728;SDS011;25402;42.004;23.088;2023-11-21T12:23:05;58.15;;;24.77;;
39728;SDS011;25402;42.004;23.088;2023-11-21T12:25:34;47.08;;;19.10;;
39728;SDS011;25402;42.004;23.088;2023-11-21T12:28:02;40.67;;;17.15;;
39728;SDS011;25402;42.004;23.088;2023-11-21T12:30:30;49.97;;;18.00;;
39728;SDS011;25402;42.004;23.088;2023-11-21T12:32:58;46.60;;;18.25;;
39728;SDS011;25402;42.004;23.088;2023-11-21T12:35:27;37.92;;;16.65;;
39728;SDS011;25402;42.004;23.088;2023-11-21T12:37:55;38.33;;;16.33;;
39728;SDS011;25402;42.004;23.088;2023-11-21T12:40:25;50.72;;;16.48;;
39728;SDS011;25402;42.004;23.088;2023-11-21T12:42:53;41.55;;;17.23;;
39728;SDS011;25402;42.004;23.088;2023-11-21T12:45:24;41.05;;;17.15;;
39728;SDS011;25402;42.004;23.088;2023-11-21T12:47:54;50.28;;;19.10;;
39728;SDS011;25402;42.004;23.088;2023-11-21T12:50:24;59.65;;;21.83;;
39728;SDS011;25402;42.004;23.088;2023-11-21T12:52:54;46.97;;;19.80;;
39728;SDS011;25402;42.004;23.088;2023-11-21T12:55:29;54.65;;;20.65;;
39728;SDS011;25402;42.004;23.088;2023-11-21T12:57:57;54.60;;;21.40;;
39728;SDS011;25402;42.004;23.088;2023-11-21T13:00:31;43.85;;;19.13;;
39728;SDS011;25402;42.004;23.088;2023-11-21T13:03:02;63.15;;;25.05;;
39728;SDS011;25402;42.004;23.088;2023-11-21T13:05:30;53.65;;;26.40;;
39728;SDS011;25402;42.004;23.088;2023-11-21T13:08:00;67.68;;;33.58;;
39728;SDS011;25402;42.004;23.088;2023-11-21T13:10:31;29.20;;;14.15;;
39728;SDS011;25402;42.004;23.088;2023-11-21T13:13:01;45.08;;;19.02;;
39728;SDS011;25402;42.004;23.088;2023-11-21T13:15:30;26.70;;;10.65;;
39728;SDS011;25402;42.004;23.088;2023-11-21T13:18:00;8.60;;;4.28;;
39728;SDS011;25402;42.004;23.088;2023-11-21T13:20:27;10.15;;;2.83;;
39728;SDS011;25402;42.004;23.088;2023-11-21T13:22:55;4.80;;;2.90;;
39728;SDS011;25402;42.004;23.088;2023-11-21T13:25:24;7.72;;;2.40;;
39728;SDS011;25402;42.004;23.088;2023-11-21T13:27:55;18.17;;;4.00;;
39728;SDS011;25402;42.004;23.088;2023-11-21T13:30:23;11.85;;;2.40;;
39728;SDS011;25402;42.004;23.088;2023-11-21T13:32:52;12.50;;;2.65;;
39728;SDS011;25402;42.004;23.088;2023-11-21T13:35:22;11.57;;;2.90;;
39728;SDS011;25402;42.004;23.088;2023-11-21T13:38:03;6.75;;;2.50;;
39728;SDS011;25402;42.004;23.088;2023-11-21T13:40:31;3.78;;;2.78;;
39728;SDS011;25402;42.004;23.088;2023-11-21T13:43:06;4.20;;;2.50;;
39728;SDS011;25402;42.004;23.088;2023-11-21T13:45:35;4.07;;;2.40;;
39728;SDS011;25402;42.004;23.088;2023-11-21T13:48:05;4.50;;;2.45;;
39728;SDS011;25402;42.004;23.088;2023-11-21T13:50:35;7.72;;;3.50;;
39728;SDS011;25402;42.004;23.088;2023-11-21T13:53:04;7.25;;;2.78;;
39728;SDS011;25402;42.004;23.088;2023-11-21T13:55:43;6.82;;;2.58;;
39728;SDS011;25402;42.004;23.088;2023-11-21T13:58:14;4.93;;;2.78;;
39728;SDS011;25402;42.004;23.088;2023-11-21T14:00:49;21.20;;;3.50;;
39728;SDS011;25402;42.004;23.088;2023-11-21T14:03:22;6.93;;;3.10;;
39728;SDS011;25402;42.004;23.088;2023-11-21T14:05:57;9.63;;;4.80;;
39728;SDS011;25402;42.004;23.088;2023-11-21T14:08:26;4.40;;;2.60;;
39728;SDS011;25402;42.004;23.088;2023-11-21T14:10:54;4.60;;;2.22;;
39728;SDS011;25402;42.004;23.088;2023-11-21T14:13:24;5.70;;;2.70;;
39728;SDS011;25402;42.004;23.088;2023-11-21T14:15:51;4.55;;;2.63;;
39728;SDS011;25402;42.004;23.088;2023-11-21T14:18:22;6.63;;;2.60;;
39728;SDS011;25402;42.004;23.088;2023-11-21T14:20:55;8.00;;;2.47;;
39728;SDS011;25402;42.004;23.088;2023-11-21T14:23:23;44.83;;;10.55;;